createdAt,value
2023-04-07T00:00:06.006Z,3.33
2023-04-07T00:02:33.242Z,3.87
2023-04-07T00:05:00.170Z,4.20
2023-04-07T00:07:26.902Z,3.37
2023-04-07T00:09:53.507Z,4.97
2023-04-07T00:12:20.637Z,4.43
2023-04-07T00:14:47.253Z,3.03
2023-04-07T00:17:13.842Z,3.97
2023-04-07T00:19:40.548Z,3.63
2023-04-07T00:22:07.140Z,3.20
2023-04-07T00:24:34.831Z,3.77
2023-04-07T00:27:02.170Z,4.00
2023-04-07T00:29:28.809Z,3.27
2023-04-07T00:31:55.429Z,4.23
2023-04-07T00:34:22.072Z,4.60
2023-04-07T00:36:52.220Z,3.63
2023-04-07T00:39:19.479Z,3.77
2023-04-07T00:41:46.814Z,4.60
2023-04-07T00:44:14.144Z,3.73
2023-04-07T00:46:41.628Z,4.00
2023-04-07T00:49:11.098Z,3.90
2023-04-07T00:51:38.199Z,3.87
2023-04-07T00:54:05.549Z,4.77
2023-04-07T00:56:32.417Z,2.93
2023-04-07T00:58:59.082Z,3.00
2023-04-07T01:01:31.685Z,3.57
2023-04-07T01:04:04.456Z,2.90
2023-04-07T01:06:36.751Z,3.27
2023-04-07T01:09:42.900Z,4.20
2023-04-07T01:12:43.098Z,3.17
2023-04-07T01:15:12.309Z,3.87
2023-04-07T01:17:45.068Z,3.50
2023-04-07T01:20:16.517Z,3.50
2023-04-07T01:22:47.079Z,3.60
2023-04-07T01:25:31.405Z,2.63
2023-04-07T01:28:22.288Z,3.50
2023-04-07T01:30:51.289Z,3.13
2023-04-07T01:33:18.949Z,3.10
2023-04-07T01:35:46.931Z,3.37
2023-04-07T01:38:14.367Z,3.50
2023-04-07T01:40:41.709Z,3.80
2023-04-07T01:43:09.066Z,3.53
2023-04-07T01:45:36.513Z,3.30
2023-04-07T01:48:07.019Z,2.97
2023-04-07T01:50:34.511Z,3.20
2023-04-07T01:53:01.971Z,3.30
2023-04-07T01:55:28.911Z,3.20
2023-04-07T01:57:55.488Z,2.63
2023-04-07T02:00:22.732Z,3.17
2023-04-07T02:02:52.342Z,2.83
2023-04-07T02:05:21.898Z,3.77
2023-04-07T02:08:06.339Z,3.17
2023-04-07T02:10:36.322Z,3.50
2023-04-07T02:13:06.532Z,3.80
2023-04-07T02:15:34.125Z,2.40
2023-04-07T02:18:02.382Z,3.03
2023-04-07T02:20:30.689Z,3.00
2023-04-07T02:22:57.586Z,3.13
2023-04-07T02:25:30.359Z,2.67
2023-04-07T02:27:58.857Z,2.77
2023-04-07T02:30:26.364Z,3.40
2023-04-07T02:32:53.713Z,3.00
2023-04-07T02:35:21.208Z,3.40
2023-04-07T02:37:48.070Z,5.13
2023-04-07T02:40:15.006Z,3.40
2023-04-07T02:42:42.058Z,2.53
2023-04-07T02:45:09.912Z,2.93
2023-04-07T02:47:37.532Z,3.77
2023-04-07T02:50:04.785Z,4.87
2023-04-07T02:52:31.450Z,4.20
2023-04-07T02:54:58.001Z,3.83
2023-04-07T02:57:24.568Z,3.00
2023-04-07T02:59:51.438Z,3.07
2023-04-07T03:02:18.122Z,3.70
2023-04-07T03:04:44.806Z,3.50
2023-04-07T03:07:11.679Z,2.50
2023-04-07T03:09:38.308Z,3.17
2023-04-07T03:12:04.940Z,3.20
2023-04-07T03:14:31.547Z,3.63
2023-04-07T03:16:58.160Z,2.67
2023-04-07T03:19:24.884Z,2.33
2023-04-07T03:21:51.715Z,3.50
2023-04-07T03:24:18.574Z,3.43
2023-04-07T03:26:45.284Z,2.60
2023-04-07T03:29:11.972Z,3.30
2023-04-07T03:31:38.912Z,3.03
2023-04-07T03:34:05.584Z,9.10
2023-04-07T03:36:32.159Z,4.30
2023-04-07T03:38:58.835Z,3.93
2023-04-07T03:41:25.490Z,4.43
2023-04-07T03:43:52.404Z,3.67
2023-04-07T03:46:22.362Z,3.87
2023-04-07T03:48:49.205Z,3.10
2023-04-07T03:51:16.239Z,3.20
2023-04-07T03:53:42.888Z,2.87
2023-04-07T03:56:09.904Z,2.80
2023-04-07T03:58:36.816Z,3.07
2023-04-07T04:01:03.581Z,4.20
2023-04-07T04:03:30.425Z,3.10
2023-04-07T04:05:57.134Z,2.77
2023-04-07T04:08:24.121Z,2.77
2023-04-07T04:10:51.317Z,2.67
2023-04-07T04:13:17.917Z,2.73
2023-04-07T04:15:44.567Z,3.23
2023-04-07T04:18:11.636Z,2.93
2023-04-07T04:20:38.284Z,2.83
2023-04-07T04:23:04.890Z,3.70
2023-04-07T04:25:31.447Z,3.50
2023-04-07T04:27:58.074Z,2.73
2023-04-07T04:30:24.805Z,2.67
2023-04-07T04:32:51.614Z,2.33
2023-04-07T04:35:18.388Z,2.87
2023-04-07T04:37:45.126Z,3.33
2023-04-07T04:40:12.472Z,2.10
2023-04-07T04:42:39.392Z,3.37
2023-04-07T04:45:07.053Z,3.23
2023-04-07T04:47:33.791Z,2.90
2023-04-07T04:50:00.544Z,3.00
2023-04-07T04:52:27.412Z,3.40
2023-04-07T04:54:55.189Z,3.17
2023-04-07T04:57:21.766Z,2.97
2023-04-07T04:59:48.491Z,2.87
2023-04-07T05:02:15.408Z,1.50
2023-04-07T05:04:42.160Z,3.60
2023-04-07T05:07:08.808Z,3.57
2023-04-07T05:09:35.397Z,2.73
2023-04-07T05:12:02.659Z,4.80
2023-04-07T05:14:29.303Z,3.77
2023-04-07T05:16:55.951Z,3.93
2023-04-07T05:19:22.597Z,4.47
2023-04-07T05:21:49.178Z,3.97
2023-04-07T05:24:15.889Z,3.47
2023-04-07T05:26:42.546Z,2.80
2023-04-07T05:29:09.106Z,2.53
2023-04-07T05:31:37.649Z,4.90
2023-04-07T05:34:04.379Z,2.80
2023-04-07T05:36:31.791Z,9.00
2023-04-07T05:38:58.479Z,5.30
2023-04-07T05:41:25.031Z,3.03
2023-04-07T05:43:51.920Z,3.97
2023-04-07T05:46:18.764Z,7.27
2023-04-07T05:48:45.573Z,4.93
2023-04-07T05:51:12.208Z,5.50
2023-04-07T05:53:40.534Z,3.67
2023-04-07T05:56:07.360Z,4.00
2023-04-07T05:58:33.997Z,4.03
2023-04-07T06:01:00.559Z,3.57
2023-04-07T06:03:27.256Z,2.77
2023-04-07T06:05:53.886Z,3.53
2023-04-07T06:08:20.587Z,4.60
2023-04-07T06:10:47.185Z,5.53
2023-04-07T06:13:14.034Z,6.60
2023-04-07T06:15:40.641Z,2.93
2023-04-07T06:18:07.243Z,2.60
2023-04-07T06:20:33.841Z,3.30
2023-04-07T06:23:00.464Z,2.77
2023-04-07T06:25:27.254Z,2.87
2023-04-07T06:27:55.693Z,2.70
2023-04-07T06:30:22.373Z,3.30
2023-04-07T06:32:49.000Z,3.20
2023-04-07T06:35:16.084Z,2.30
2023-04-07T06:37:42.773Z,3.20
2023-04-07T06:40:09.786Z,2.27
2023-04-07T06:42:36.492Z,2.70
2023-04-07T06:45:04.182Z,2.67
2023-04-07T06:47:30.862Z,3.10
2023-04-07T06:49:57.595Z,3.97
2023-04-07T06:52:24.197Z,2.87
2023-04-07T06:54:50.864Z,3.20
2023-04-07T06:57:17.435Z,2.80
2023-04-07T06:59:44.294Z,2.93
2023-04-07T07:02:11.053Z,2.80
2023-04-07T07:04:37.922Z,2.87
2023-04-07T07:07:04.581Z,2.93
2023-04-07T07:09:31.443Z,2.97
2023-04-07T07:11:58.057Z,3.30
2023-04-07T07:14:24.662Z,3.50
2023-04-07T07:16:51.275Z,3.73
2023-04-07T07:19:17.841Z,3.00
2023-04-07T07:21:44.477Z,3.13
2023-04-07T07:24:11.020Z,2.63
2023-04-07T07:26:37.635Z,3.10
2023-04-07T07:29:04.238Z,3.67
2023-04-07T07:31:31.616Z,3.23
2023-04-07T07:33:58.432Z,3.60
2023-04-07T07:36:25.180Z,6.00
2023-04-07T07:38:51.941Z,9.60
2023-04-07T07:41:18.720Z,3.97
2023-04-07T07:43:45.494Z,6.93
2023-04-07T07:46:12.325Z,11.40
2023-04-07T07:48:39.103Z,5.07
2023-04-07T07:51:06.187Z,6.37
2023-04-07T07:53:32.751Z,4.33
2023-04-07T07:55:59.444Z,4.97
2023-04-07T07:58:26.143Z,4.63
2023-04-07T08:00:52.802Z,3.20
2023-04-07T08:03:22.615Z,3.83
2023-04-07T08:05:50.436Z,2.80
2023-04-07T08:08:17.026Z,3.00
2023-04-07T08:10:43.855Z,2.70
2023-04-07T08:13:10.734Z,2.20
2023-04-07T08:15:37.328Z,3.23
2023-04-07T08:18:06.468Z,3.03
2023-04-07T08:20:33.818Z,2.63
2023-04-07T08:23:02.236Z,3.33
2023-04-07T08:25:29.797Z,3.27
2023-04-07T08:27:56.568Z,3.10
2023-04-07T08:30:23.316Z,3.07
2023-04-07T08:32:50.150Z,2.97
2023-04-07T08:35:16.824Z,3.17
2023-04-07T08:37:44.558Z,3.23
2023-04-07T08:40:12.410Z,3.03
2023-04-07T08:42:43.039Z,3.50
2023-04-07T08:45:10.124Z,2.83
2023-04-07T08:47:38.504Z,3.30
2023-04-07T08:50:07.943Z,2.80
2023-04-07T08:52:37.531Z,3.23
2023-04-07T08:55:06.742Z,3.27
2023-04-07T08:57:34.100Z,2.47
2023-04-07T09:00:08.201Z,2.87
2023-04-07T09:02:37.781Z,3.33
2023-04-07T09:05:06.713Z,2.50
2023-04-07T09:07:35.444Z,3.23
2023-04-07T09:10:02.588Z,3.30
2023-04-07T09:12:30.712Z,2.77
2023-04-07T09:14:58.124Z,2.20
2023-04-07T09:17:28.725Z,2.70
2023-04-07T09:20:00.051Z,2.43
2023-04-07T09:22:47.389Z,3.43
2023-04-07T09:25:27.560Z,3.00
2023-04-07T09:28:02.028Z,3.37
2023-04-07T09:30:30.483Z,3.47
2023-04-07T09:32:58.482Z,3.30
2023-04-07T09:35:25.241Z,3.83
2023-04-07T09:38:09.301Z,3.33
2023-04-07T09:40:37.429Z,3.00
2023-04-07T09:43:05.458Z,3.10
2023-04-07T09:45:36.209Z,3.93
2023-04-07T09:48:08.012Z,3.57
2023-04-07T09:50:42.074Z,3.00
2023-04-07T09:53:08.704Z,3.60
2023-04-07T09:55:36.327Z,5.17
2023-04-07T09:58:04.556Z,3.20
2023-04-07T10:00:31.253Z,3.67
2023-04-07T10:02:58.888Z,3.53
2023-04-07T10:05:25.837Z,3.30
2023-04-07T10:07:53.206Z,3.70
2023-04-07T10:10:19.951Z,3.80
2023-04-07T10:12:49.678Z,3.60
2023-04-07T10:15:16.399Z,3.60
2023-04-07T10:17:50.009Z,3.53
2023-04-07T10:20:22.836Z,3.40
2023-04-07T10:22:53.828Z,3.03
2023-04-07T10:25:24.667Z,3.97
2023-04-07T10:27:54.867Z,2.83
2023-04-07T10:30:25.465Z,3.30
2023-04-07T10:32:54.292Z,4.30
2023-04-07T10:35:22.288Z,4.60
2023-04-07T10:38:07.927Z,5.43
2023-04-07T10:40:35.891Z,3.10
2023-04-07T10:43:03.265Z,3.33
2023-04-07T10:45:56.099Z,3.83
2023-04-07T10:48:23.403Z,3.53
2023-04-07T10:51:05.001Z,3.47
2023-04-07T10:53:31.848Z,3.83
2023-04-07T10:56:00.367Z,3.83
2023-04-07T10:58:31.087Z,4.03
2023-04-07T11:01:00.796Z,3.60
2023-04-07T11:03:29.823Z,3.63
2023-04-07T11:06:09.590Z,3.40
2023-04-07T11:08:45.663Z,3.90
2023-04-07T11:11:16.162Z,2.93
2023-04-07T11:13:43.361Z,3.83
2023-04-07T11:16:10.819Z,4.70
2023-04-07T11:18:38.090Z,4.67
2023-04-07T11:21:06.840Z,4.13
2023-04-07T11:23:44.552Z,5.03
2023-04-07T11:26:13.218Z,3.77
2023-04-07T11:28:53.073Z,4.57
2023-04-07T11:31:27.606Z,4.43
2023-04-07T11:33:59.394Z,3.07
2023-04-07T11:36:34.198Z,3.90
2023-04-07T11:39:03.052Z,3.77
2023-04-07T11:41:32.888Z,3.83
2023-04-07T11:44:12.730Z,3.63
2023-04-07T11:46:59.830Z,4.80
2023-04-07T11:49:28.611Z,4.53
2023-04-07T11:52:09.477Z,4.13
2023-04-07T11:54:47.454Z,3.77
2023-04-07T11:57:14.864Z,4.67
2023-04-07T11:59:41.953Z,5.53
2023-04-07T12:02:08.832Z,4.33
2023-04-07T12:04:37.902Z,8.97
2023-04-07T12:07:10.781Z,4.73
2023-04-07T12:09:38.329Z,7.03
2023-04-07T12:12:07.839Z,5.37
2023-04-07T12:14:35.278Z,3.77
2023-04-07T12:17:03.619Z,4.07
2023-04-07T12:19:39.743Z,3.23
2023-04-07T12:22:06.537Z,4.27
2023-04-07T12:24:33.111Z,4.40
2023-04-07T12:27:00.194Z,4.57
2023-04-07T12:29:26.933Z,3.33
2023-04-07T12:31:53.609Z,4.13
2023-04-07T12:34:20.736Z,4.33
2023-04-07T12:36:47.538Z,3.80
2023-04-07T12:39:15.176Z,3.10
2023-04-07T12:41:42.154Z,3.47
2023-04-07T12:44:08.768Z,4.13
2023-04-07T12:46:35.371Z,3.50
2023-04-07T12:49:02.792Z,4.60
2023-04-07T12:51:29.417Z,4.10
2023-04-07T12:53:56.062Z,3.63
2023-04-07T12:56:22.787Z,4.07
2023-04-07T12:58:49.442Z,4.57
2023-04-07T13:01:16.845Z,4.50
2023-04-07T13:03:44.058Z,4.33
2023-04-07T13:06:11.755Z,4.40
2023-04-07T13:08:39.566Z,5.07
2023-04-07T13:11:06.595Z,4.60
2023-04-07T13:13:33.902Z,4.10
2023-04-07T13:16:00.998Z,3.80
2023-04-07T13:18:32.834Z,4.03
2023-04-07T13:21:33.716Z,2.23
2023-04-07T13:23:46.581Z,4.43
2023-04-07T13:26:13.224Z,4.20
2023-04-07T13:28:39.910Z,3.93
2023-04-07T13:31:07.671Z,3.50
2023-04-07T13:33:34.912Z,3.83
2023-04-07T13:36:02.307Z,4.27
2023-04-07T13:38:29.046Z,3.23
2023-04-07T13:40:55.646Z,3.43
2023-04-07T13:43:22.269Z,4.43
2023-04-07T13:45:49.467Z,4.27
2023-04-07T13:48:16.195Z,6.57
2023-04-07T13:50:42.792Z,4.80
2023-04-07T13:53:09.502Z,4.07
2023-04-07T13:55:36.812Z,4.17
2023-04-07T13:58:03.435Z,4.73
2023-04-07T14:00:30.266Z,3.90
2023-04-07T14:02:57.213Z,4.30
2023-04-07T14:05:24.751Z,3.50
2023-04-07T14:07:51.609Z,4.30
2023-04-07T14:10:18.349Z,5.00
2023-04-07T14:12:45.042Z,4.17
2023-04-07T14:15:11.888Z,4.10
2023-04-07T14:17:38.614Z,3.90
2023-04-07T14:20:06.137Z,3.57
2023-04-07T14:22:32.762Z,4.13
2023-04-07T14:24:59.730Z,3.73
2023-04-07T14:27:26.428Z,3.07
2023-04-07T14:29:54.130Z,3.93
2023-04-07T14:32:20.920Z,4.40
2023-04-07T14:34:47.907Z,4.00
2023-04-07T14:37:16.183Z,4.27
2023-04-07T14:39:45.887Z,4.40
2023-04-07T14:42:22.514Z,4.43
2023-04-07T14:44:49.842Z,3.97
2023-04-07T14:47:16.481Z,3.63
2023-04-07T14:49:43.159Z,4.87
2023-04-07T14:52:10.506Z,4.33
2023-04-07T14:54:37.379Z,3.80
2023-04-07T14:57:04.004Z,3.97
2023-04-07T14:59:30.624Z,4.20
2023-04-07T15:01:57.319Z,4.23
2023-04-07T15:04:24.126Z,4.80
2023-04-07T15:06:50.945Z,4.13
2023-04-07T15:09:19.035Z,4.83
2023-04-07T15:11:48.541Z,5.10
2023-04-07T15:14:15.424Z,3.80
2023-04-07T15:16:42.180Z,3.90
2023-04-07T15:19:08.867Z,4.97
2023-04-07T15:21:35.696Z,3.93
2023-04-07T15:24:02.318Z,4.47
2023-04-07T15:26:28.939Z,3.93
2023-04-07T15:28:55.761Z,4.03
2023-04-07T15:31:23.513Z,5.57
2023-04-07T15:33:51.029Z,5.00
2023-04-07T15:36:17.589Z,4.83
2023-04-07T15:38:44.226Z,5.20
2023-04-07T15:41:14.688Z,4.40
2023-04-07T15:43:41.282Z,4.27
2023-04-07T15:46:08.061Z,3.90
2023-04-07T15:48:34.655Z,3.97
2023-04-07T15:51:01.283Z,4.33
2023-04-07T15:53:27.899Z,5.23
2023-04-07T15:55:54.944Z,6.53
2023-04-07T15:58:21.544Z,4.90
2023-04-07T16:00:48.219Z,5.23
2023-04-07T16:03:15.150Z,4.40
2023-04-07T16:05:42.019Z,5.17
2023-04-07T16:08:08.638Z,5.70
2023-04-07T16:10:35.295Z,4.27
2023-04-07T16:13:01.875Z,5.10
2023-04-07T16:15:39.246Z,5.37
2023-04-07T16:18:10.134Z,4.10
2023-04-07T16:20:36.753Z,4.17
2023-04-07T16:23:03.484Z,4.87
2023-04-07T16:25:31.307Z,4.63
2023-04-07T16:27:58.185Z,5.23
2023-04-07T16:30:25.441Z,4.23
2023-04-07T16:32:52.372Z,5.77
2023-04-07T16:35:19.629Z,4.53
2023-04-07T16:37:46.589Z,4.47
2023-04-07T16:40:13.991Z,4.70
2023-04-07T16:42:40.992Z,4.43
2023-04-07T16:45:08.265Z,5.00
2023-04-07T16:47:35.465Z,4.40
2023-04-07T16:50:04.039Z,4.80
2023-04-07T16:52:31.009Z,4.40
2023-04-07T16:54:58.215Z,4.97
2023-04-07T16:57:24.824Z,4.40
2023-04-07T16:59:51.446Z,4.83
2023-04-07T17:02:18.182Z,4.80
2023-04-07T17:04:44.985Z,5.03
2023-04-07T17:07:12.076Z,5.07
2023-04-07T17:09:39.461Z,4.77
2023-04-07T17:12:06.496Z,4.97
2023-04-07T17:14:33.549Z,4.80
2023-04-07T17:17:00.914Z,5.07
2023-04-07T17:19:27.770Z,6.63
2023-04-07T17:21:54.407Z,5.43
2023-04-07T17:24:21.169Z,5.43
2023-04-07T17:26:47.998Z,4.43
2023-04-07T17:29:15.670Z,5.37
2023-04-07T17:31:42.507Z,6.13
2023-04-07T17:34:09.133Z,4.77
2023-04-07T17:36:37.603Z,4.83
2023-04-07T17:39:05.162Z,5.73
2023-04-07T17:41:34.566Z,4.80
2023-04-07T17:44:02.308Z,5.00
2023-04-07T17:46:29.370Z,5.50
2023-04-07T17:49:00.325Z,6.07
2023-04-07T17:51:27.669Z,5.67
2023-04-07T17:53:54.963Z,5.77
2023-04-07T17:56:21.687Z,5.60
2023-04-07T17:58:48.523Z,6.07
2023-04-07T18:01:15.830Z,6.57
2023-04-07T18:03:42.935Z,6.30
2023-04-07T18:06:09.749Z,6.30
2023-04-07T18:08:36.650Z,6.87
2023-04-07T18:11:05.911Z,7.03
2023-04-07T18:13:34.035Z,7.37
2023-04-07T18:16:00.848Z,7.83
2023-04-07T18:18:27.614Z,7.17
2023-04-07T18:20:54.265Z,6.73
2023-04-07T18:23:20.849Z,6.73
2023-04-07T18:25:47.593Z,6.63
2023-04-07T18:28:14.250Z,10.37
2023-04-07T18:30:40.835Z,8.30
2023-04-07T18:33:07.598Z,7.63
2023-04-07T18:35:34.489Z,7.53
2023-04-07T18:38:01.142Z,7.97
2023-04-07T18:40:30.018Z,10.43
2023-04-07T18:42:56.686Z,10.93
2023-04-07T18:45:23.343Z,10.87
2023-04-07T18:47:51.254Z,9.17
2023-04-07T18:50:18.299Z,8.03
2023-04-07T18:52:44.918Z,7.93
2023-04-07T18:55:11.531Z,7.50
2023-04-07T18:57:39.462Z,8.33
2023-04-07T19:00:06.723Z,8.47
2023-04-07T19:02:33.584Z,6.93
2023-04-07T19:05:00.371Z,7.80
2023-04-07T19:07:26.994Z,7.90
2023-04-07T19:09:53.914Z,7.80
2023-04-07T19:12:20.924Z,6.83
2023-04-07T19:14:47.530Z,7.87
2023-04-07T19:17:14.243Z,7.40
2023-04-07T19:19:40.888Z,7.57
2023-04-07T19:22:07.553Z,6.27
2023-04-07T19:24:34.273Z,7.17
2023-04-07T19:27:02.228Z,6.50
2023-04-07T19:29:29.304Z,6.27
2023-04-07T19:31:57.404Z,6.03
2023-04-07T19:34:24.104Z,6.07
2023-04-07T19:36:50.767Z,5.30
2023-04-07T19:39:17.406Z,6.60
2023-04-07T19:41:44.028Z,5.63
2023-04-07T19:44:10.921Z,5.77
2023-04-07T19:46:37.675Z,5.87
2023-04-07T19:49:04.267Z,6.60
2023-04-07T19:51:31.144Z,5.63
2023-04-07T19:53:57.813Z,6.60
2023-04-07T19:56:25.152Z,6.53
2023-04-07T19:58:51.885Z,6.77
2023-04-07T20:01:19.236Z,8.37
2023-04-07T20:03:46.838Z,9.07
2023-04-07T20:06:15.114Z,8.37
2023-04-07T20:08:42.355Z,7.90
2023-04-07T20:11:13.035Z,8.63
2023-04-07T20:13:41.184Z,8.37
2023-04-07T20:16:08.297Z,7.57
2023-04-07T20:18:34.977Z,7.30
2023-04-07T20:21:02.843Z,8.67
2023-04-07T20:23:29.584Z,8.47
2023-04-07T20:25:56.470Z,7.27
2023-04-07T20:28:23.422Z,7.70
2023-04-07T20:30:50.580Z,6.43
2023-04-07T20:33:17.287Z,7.10
2023-04-07T20:35:44.104Z,7.53
2023-04-07T20:38:11.170Z,8.27
2023-04-07T20:40:37.867Z,9.07
2023-04-07T20:43:05.541Z,8.00
2023-04-07T20:45:33.174Z,7.40
2023-04-07T20:48:00.240Z,7.77
2023-04-07T20:50:28.521Z,7.07
2023-04-07T20:52:55.170Z,7.43
2023-04-07T20:55:21.877Z,7.30
2023-04-07T20:57:50.267Z,8.20
2023-04-07T21:00:18.777Z,7.37
2023-04-07T21:02:46.951Z,8.77
2023-04-07T21:05:13.889Z,8.60
2023-04-07T21:07:40.603Z,8.77
2023-04-07T21:10:08.743Z,8.53
2023-04-07T21:12:35.952Z,8.33
2023-04-07T21:15:02.554Z,6.67
2023-04-07T21:17:29.252Z,7.67
2023-04-07T21:19:55.989Z,9.07
2023-04-07T21:22:22.582Z,6.90
2023-04-07T21:24:49.216Z,8.73
2023-04-07T21:27:16.564Z,9.27
2023-04-07T21:29:43.224Z,8.27
2023-04-07T21:32:10.622Z,10.00
2023-04-07T21:34:37.335Z,8.60
2023-04-07T21:37:04.007Z,10.27
2023-04-07T21:39:30.935Z,11.70
2023-04-07T21:41:57.653Z,10.83
2023-04-07T21:44:24.308Z,8.80
2023-04-07T21:46:51.324Z,7.93
2023-04-07T21:49:21.984Z,7.67
2023-04-07T21:51:49.343Z,7.20
2023-04-07T21:54:16.071Z,6.90
2023-04-07T21:56:43.040Z,6.60
2023-04-07T21:59:09.614Z,7.23
2023-04-07T22:01:36.385Z,6.60
2023-04-07T22:04:03.058Z,5.93
2023-04-07T22:06:29.748Z,7.10
2023-04-07T22:09:01.869Z,6.93
2023-04-07T22:11:29.572Z,7.53
2023-04-07T22:13:56.145Z,9.37
2023-04-07T22:16:22.848Z,12.10
2023-04-07T22:18:49.753Z,16.90
2023-04-07T22:21:18.024Z,9.30
2023-04-07T22:23:44.942Z,9.30
2023-04-07T22:26:11.668Z,8.77
2023-04-07T22:28:38.285Z,10.93
2023-04-07T22:31:05.179Z,10.17
2023-04-07T22:33:31.801Z,10.63
2023-04-07T22:35:58.489Z,10.37
2023-04-07T22:38:25.377Z,10.23
2023-04-07T22:40:52.005Z,11.23
2023-04-07T22:43:18.855Z,10.10
2023-04-07T22:45:45.583Z,10.67
2023-04-07T22:48:12.694Z,10.73
2023-04-07T22:50:39.468Z,10.27
2023-04-07T22:53:07.427Z,10.27
2023-04-07T22:55:34.827Z,8.60
2023-04-07T22:58:02.225Z,8.60
2023-04-07T23:00:28.910Z,9.03
2023-04-07T23:02:55.819Z,8.20
2023-04-07T23:05:22.709Z,8.43
2023-04-07T23:07:51.347Z,8.53
2023-04-07T23:10:18.064Z,8.53
2023-04-07T23:12:44.680Z,8.87
2023-04-07T23:15:11.482Z,9.60
2023-04-07T23:17:38.118Z,13.87
2023-04-07T23:20:05.218Z,10.70
2023-04-07T23:22:31.862Z,8.13
2023-04-07T23:24:58.422Z,11.20
2023-04-07T23:27:25.038Z,9.90
2023-04-07T23:29:51.752Z,10.77
2023-04-07T23:32:18.530Z,12.03
2023-04-07T23:34:45.131Z,13.03
2023-04-07T23:37:11.745Z,13.80
2023-04-07T23:39:39.169Z,9.97
2023-04-07T23:42:05.804Z,11.57
2023-04-07T23:44:32.379Z,13.37
2023-04-07T23:46:58.998Z,14.13
2023-04-07T23:49:26.154Z,13.17
2023-04-07T23:51:52.806Z,10.10
2023-04-07T23:54:19.383Z,9.77
2023-04-07T23:56:46.035Z,10.27
2023-04-07T23:59:13.346Z,9.40
